LFRS/NTE METAR and TAF weather

Enter ICAO airport designator
Station Type Date Time Source
LFRS METAR 2018/12/13 08:30 UTC NOAA

LFRS 130830Z AUTO 08010KT 9999 OVC012 03/01 Q1008 NOSIG


Station Type Date Time Source
LFRS Decoded METAR 2018/12/13 08:30 UTC NOAA

Nantes, France (LFRS) 47-10N 001-36W 27M
Dec 13, 2018 - 03:30 AM EST / 2018.12.13 0830 UTC
Wind: from the E (080 degrees) at 12 MPH (10 KT):0
Visibility: greater than 7 mile(s):0
Sky conditions: overcast
Temperature: 37 F (3 C)
Dew Point: 33 F (1 C)
Relative Humidity: 86%
Pressure (altimeter): 29.77 in. Hg (1008 hPa)
ob: LFRS 130830Z AUTO 08010KT 9999 OVC012 03/01 Q1008 NOSIG
cycle: 8

Station Type Date Time Source
LFRS TAF 2018/12/13 06:21 UTC NOAA

TAF LFRS 130500Z 1306/1412 09010KT 9999 BKN040
TEMPO 1306/1318 BKN010


Example: see airport list